sensor_id;sensor_type;location;lat;lon;timestamp;temperature;humidity
13610;DHT22;6876;50.788;4.940;2023-09-19T00:01:42;16.20;1.00
13610;DHT22;6876;50.788;4.940;2023-09-19T00:04:32;16.20;99.90
13610;DHT22;6876;50.788;4.940;2023-09-19T00:07:19;16.20;99.90
13610;DHT22;6876;50.788;4.940;2023-09-19T00:10:07;16.20;99.90
13610;DHT22;6876;50.788;4.940;2023-09-19T00:12:56;16.20;99.90
13610;DHT22;6876;50.788;4.940;2023-09-19T00:15:47;16.20;99.90
13610;DHT22;6876;50.788;4.940;2023-09-19T00:18:35;16.10;1.00
13610;DHT22;6876;50.788;4.940;2023-09-19T00:21:24;16.10;1.00
13610;DHT22;6876;50.788;4.940;2023-09-19T00:24:11;16.00;1.00
13610;DHT22;6876;50.788;4.940;2023-09-19T00:26:59;16.00;1.00
13610;DHT22;6876;50.788;4.940;2023-09-19T00:29:47;16.00;1.00
13610;DHT22;6876;50.788;4.940;2023-09-19T00:32:34;16.10;1.00
13610;DHT22;6876;50.788;4.940;2023-09-19T00:35:23;16.00;1.00
13610;DHT22;6876;50.788;4.940;2023-09-19T00:38:12;15.90;1.00
13610;DHT22;6876;50.788;4.940;2023-09-19T00:41:01;15.90;1.00
13610;DHT22;6876;50.788;4.940;2023-09-19T00:43:49;15.90;1.00
13610;DHT22;6876;50.788;4.940;2023-09-19T00:46:36;15.90;1.00
13610;DHT22;6876;50.788;4.940;2023-09-19T00:49:24;15.90;1.00
13610;DHT22;6876;50.788;4.940;2023-09-19T00:52:12;15.90;4.50
13610;DHT22;6876;50.788;4.940;2023-09-19T00:55:01;15.80;1.00
13610;DHT22;6876;50.788;4.940;2023-09-19T00:57:48;15.90;1.00
13610;DHT22;6876;50.788;4.940;2023-09-19T01:00:36;15.90;1.90
13610;DHT22;6876;50.788;4.940;2023-09-19T01:03:23;15.90;1.00
13610;DHT22;6876;50.788;4.940;2023-09-19T01:06:11;15.90;1.00
13610;DHT22;6876;50.788;4.940;2023-09-19T01:08:58;15.90;1.00
13610;DHT22;6876;50.788;4.940;2023-09-19T01:11:49;15.90;1.00
13610;DHT22;6876;50.788;4.940;2023-09-19T01:14:42;15.90;1.00
13610;DHT22;6876;50.788;4.940;2023-09-19T01:17:43;15.80;1.00
13610;DHT22;6876;50.788;4.940;2023-09-19T01:20:39;15.80;1.00
13610;DHT22;6876;50.788;4.940;2023-09-19T01:23:38;15.80;1.00
13610;DHT22;6876;50.788;4.940;2023-09-19T01:26:46;15.80;1.00
13610;DHT22;6876;50.788;4.940;2023-09-19T01:29:46;15.80;1.00
13610;DHT22;6876;50.788;4.940;2023-09-19T01:32:35;15.80;1.00
13610;DHT22;6876;50.788;4.940;2023-09-19T01:35:24;15.80;1.00
13610;DHT22;6876;50.788;4.940;2023-09-19T01:38:12;15.70;1.00
13610;DHT22;6876;50.788;4.940;2023-09-19T01:41:04;15.70;1.00
13610;DHT22;6876;50.788;4.940;2023-09-19T01:43:53;15.70;1.00
13610;DHT22;6876;50.788;4.940;2023-09-19T01:46:41;15.60;1.00
13610;DHT22;6876;50.788;4.940;2023-09-19T01:49:36;15.50;1.00
13610;DHT22;6876;50.788;4.940;2023-09-19T01:52:28;15.50;1.00
13610;DHT22;6876;50.788;4.940;2023-09-19T01:55:17;15.50;1.00
13610;DHT22;6876;50.788;4.940;2023-09-19T01:58:07;15.40;1.00
13610;DHT22;6876;50.788;4.940;2023-09-19T02:00:56;15.40;1.00
13610;DHT22;6876;50.788;4.940;2023-09-19T02:03:46;15.30;1.00
13610;DHT22;6876;50.788;4.940;2023-09-19T02:06:39;15.30;1.00
13610;DHT22;6876;50.788;4.940;2023-09-19T02:09:26;15.20;1.00
13610;DHT22;6876;50.788;4.940;2023-09-19T02:12:13;15.20;1.00
13610;DHT22;6876;50.788;4.940;2023-09-19T02:15:01;15.20;1.00
13610;DHT22;6876;50.788;4.940;2023-09-19T02:17:48;15.20;1.00
13610;DHT22;6876;50.788;4.940;2023-09-19T02:20:36;15.20;1.00
13610;DHT22;6876;50.788;4.940;2023-09-19T02:23:24;15.10;1.00
13610;DHT22;6876;50.788;4.940;2023-09-19T02:26:12;15.10;1.00
13610;DHT22;6876;50.788;4.940;2023-09-19T02:28:59;15.10;1.00
13610;DHT22;6876;50.788;4.940;2023-09-19T02:31:47;15.10;1.00
13610;DHT22;6876;50.788;4.940;2023-09-19T02:34:34;15.10;1.00
13610;DHT22;6876;50.788;4.940;2023-09-19T02:37:22;15.10;1.00
13610;DHT22;6876;50.788;4.940;2023-09-19T02:40:11;15.10;1.00
13610;DHT22;6876;50.788;4.940;2023-09-19T02:43:05;15.10;1.00
13610;DHT22;6876;50.788;4.940;2023-09-19T02:45:54;15.10;1.00
13610;DHT22;6876;50.788;4.940;2023-09-19T02:48:43;15.00;1.00
13610;DHT22;6876;50.788;4.940;2023-09-19T02:51:30;15.00;1.00
13610;DHT22;6876;50.788;4.940;2023-09-19T02:54:17;15.00;1.00
13610;DHT22;6876;50.788;4.940;2023-09-19T02:57:07;15.00;1.00
13610;DHT22;6876;50.788;4.940;2023-09-19T02:59:55;15.00;1.00
13610;DHT22;6876;50.788;4.940;2023-09-19T03:02:43;15.00;1.00
13610;DHT22;6876;50.788;4.940;2023-09-19T03:05:30;15.00;1.00
13610;DHT22;6876;50.788;4.940;2023-09-19T03:08:17;15.10;1.00
13610;DHT22;6876;50.788;4.940;2023-09-19T03:11:06;15.00;1.00
13610;DHT22;6876;50.788;4.940;2023-09-19T03:13:55;15.00;1.00
13610;DHT22;6876;50.788;4.940;2023-09-19T03:16:42;15.10;1.00
13610;DHT22;6876;50.788;4.940;2023-09-19T03:19:30;15.20;1.00
13610;DHT22;6876;50.788;4.940;2023-09-19T03:22:19;15.30;99.90
13610;DHT22;6876;50.788;4.940;2023-09-19T03:25:07;15.30;98.60
13610;DHT22;6876;50.788;4.940;2023-09-19T03:27:56;15.40;1.00
13610;DHT22;6876;50.788;4.940;2023-09-19T03:30:45;15.40;1.00
13610;DHT22;6876;50.788;4.940;2023-09-19T03:33:33;15.40;1.00
13610;DHT22;6876;50.788;4.940;2023-09-19T03:36:20;15.40;1.00
13610;DHT22;6876;50.788;4.940;2023-09-19T03:39:08;15.40;1.00
13610;DHT22;6876;50.788;4.940;2023-09-19T03:41:56;15.30;99.90
13610;DHT22;6876;50.788;4.940;2023-09-19T03:44:43;15.30;1.00
13610;DHT22;6876;50.788;4.940;2023-09-19T03:47:32;15.30;98.00
13610;DHT22;6876;50.788;4.940;2023-09-19T03:50:19;15.20;99.90
13610;DHT22;6876;50.788;4.940;2023-09-19T03:53:07;15.10;1.00
13610;DHT22;6876;50.788;4.940;2023-09-19T03:55:54;15.10;1.00
13610;DHT22;6876;50.788;4.940;2023-09-19T03:58:41;15.00;1.00
13610;DHT22;6876;50.788;4.940;2023-09-19T04:01:28;15.00;1.00
13610;DHT22;6876;50.788;4.940;2023-09-19T04:04:19;15.00;1.00
13610;DHT22;6876;50.788;4.940;2023-09-19T04:07:06;14.90;1.00
13610;DHT22;6876;50.788;4.940;2023-09-19T04:09:54;14.90;8.40
13610;DHT22;6876;50.788;4.940;2023-09-19T04:12:50;14.80;1.00
13610;DHT22;6876;50.788;4.940;2023-09-19T04:15:38;14.80;1.00
13610;DHT22;6876;50.788;4.940;2023-09-19T04:18:26;14.80;45.30
13610;DHT22;6876;50.788;4.940;2023-09-19T04:21:15;14.80;53.40
13610;DHT22;6876;50.788;4.940;2023-09-19T04:24:02;14.70;99.90
13610;DHT22;6876;50.788;4.940;2023-09-19T04:26:50;14.70;99.90
13610;DHT22;6876;50.788;4.940;2023-09-19T04:29:41;14.80;99.90
13610;DHT22;6876;50.788;4.940;2023-09-19T04:32:29;14.70;99.90
13610;DHT22;6876;50.788;4.940;2023-09-19T04:35:18;14.70;99.90
13610;DHT22;6876;50.788;4.940;2023-09-19T04:38:07;14.70;99.90
13610;DHT22;6876;50.788;4.940;2023-09-19T04:40:57;14.70;99.90
13610;DHT22;6876;50.788;4.940;2023-09-19T04:43:44;14.70;99.90
13610;DHT22;6876;50.788;4.940;2023-09-19T04:46:32;14.70;99.90
13610;DHT22;6876;50.788;4.940;2023-09-19T04:49:19;14.80;99.90
13610;DHT22;6876;50.788;4.940;2023-09-19T04:52:06;14.70;99.90
13610;DHT22;6876;50.788;4.940;2023-09-19T04:54:55;14.70;99.90
13610;DHT22;6876;50.788;4.940;2023-09-19T04:57:43;14.80;99.90
13610;DHT22;6876;50.788;4.940;2023-09-19T05:00:31;14.70;99.90
13610;DHT22;6876;50.788;4.940;2023-09-19T05:03:21;14.70;97.50
13610;DHT22;6876;50.788;4.940;2023-09-19T05:06:08;14.70;52.10
13610;DHT22;6876;50.788;4.940;2023-09-19T05:08:55;14.70;99.90
13610;DHT22;6876;50.788;4.940;2023-09-19T05:11:44;14.70;99.90
13610;DHT22;6876;50.788;4.940;2023-09-19T05:14:32;14.70;41.40
13610;DHT22;6876;50.788;4.940;2023-09-19T05:17:19;14.70;91.30
13610;DHT22;6876;50.788;4.940;2023-09-19T05:20:08;14.70;27.30
13610;DHT22;6876;50.788;4.940;2023-09-19T05:23:00;14.70;55.20
13610;DHT22;6876;50.788;4.940;2023-09-19T05:25:48;14.70;19.50
13610;DHT22;6876;50.788;4.940;2023-09-19T05:28:36;14.70;47.40
13610;DHT22;6876;50.788;4.940;2023-09-19T05:31:24;14.60;29.10
13610;DHT22;6876;50.788;4.940;2023-09-19T05:34:11;14.60;99.90
13610;DHT22;6876;50.788;4.940;2023-09-19T05:36:59;14.60;66.20
13610;DHT22;6876;50.788;4.940;2023-09-19T05:39:46;14.60;72.60
13610;DHT22;6876;50.788;4.940;2023-09-19T05:42:33;14.60;99.90
13610;DHT22;6876;50.788;4.940;2023-09-19T05:45:22;14.60;99.90
13610;DHT22;6876;50.788;4.940;2023-09-19T05:48:11;14.70;99.90
13610;DHT22;6876;50.788;4.940;2023-09-19T05:51:00;14.70;92.90
13610;DHT22;6876;50.788;4.940;2023-09-19T05:53:48;14.80;52.00
13610;DHT22;6876;50.788;4.940;2023-09-19T05:56:35;14.80;16.90
13610;DHT22;6876;50.788;4.940;2023-09-19T05:59:23;14.80;46.40
13610;DHT22;6876;50.788;4.940;2023-09-19T06:02:11;14.80;1.00
13610;DHT22;6876;50.788;4.940;2023-09-19T06:04:59;14.80;20.50
13610;DHT22;6876;50.788;4.940;2023-09-19T06:07:47;14.90;44.30
13610;DHT22;6876;50.788;4.940;2023-09-19T06:10:35;14.90;1.00
13610;DHT22;6876;50.788;4.940;2023-09-19T06:13:22;15.00;1.00
13610;DHT22;6876;50.788;4.940;2023-09-19T06:16:12;15.10;1.00
13610;DHT22;6876;50.788;4.940;2023-09-19T06:19:01;15.10;1.00
13610;DHT22;6876;50.788;4.940;2023-09-19T06:21:49;15.10;1.00
13610;DHT22;6876;50.788;4.940;2023-09-19T06:24:36;15.20;1.00
13610;DHT22;6876;50.788;4.940;2023-09-19T06:27:23;15.20;1.00
13610;DHT22;6876;50.788;4.940;2023-09-19T06:30:11;15.40;1.00
13610;DHT22;6876;50.788;4.940;2023-09-19T06:33:00;15.50;99.90
13610;DHT22;6876;50.788;4.940;2023-09-19T06:35:49;15.70;99.90
13610;DHT22;6876;50.788;4.940;2023-09-19T06:38:39;15.80;1.00
13610;DHT22;6876;50.788;4.940;2023-09-19T06:41:27;16.00;1.00
13610;DHT22;6876;50.788;4.940;2023-09-19T06:44:15;16.00;99.90
13610;DHT22;6876;50.788;4.940;2023-09-19T06:47:03;16.00;99.90
13610;DHT22;6876;50.788;4.940;2023-09-19T06:49:51;16.10;99.90
13610;DHT22;6876;50.788;4.940;2023-09-19T06:52:39;16.20;99.90
13610;DHT22;6876;50.788;4.940;2023-09-19T06:55:28;16.30;99.90
13610;DHT22;6876;50.788;4.940;2023-09-19T06:58:17;16.40;99.90
13610;DHT22;6876;50.788;4.940;2023-09-19T07:01:05;16.50;99.90
13610;DHT22;6876;50.788;4.940;2023-09-19T07:03:52;16.80;1.00
13610;DHT22;6876;50.788;4.940;2023-09-19T07:06:40;16.80;1.00
13610;DHT22;6876;50.788;4.940;2023-09-19T07:09:29;16.80;76.70
13610;DHT22;6876;50.788;4.940;2023-09-19T07:12:16;16.70;51.80
13610;DHT22;6876;50.788;4.940;2023-09-19T07:15:04;16.50;97.70
13610;DHT22;6876;50.788;4.940;2023-09-19T07:17:52;16.50;99.90
13610;DHT22;6876;50.788;4.940;2023-09-19T07:20:40;16.50;99.90
13610;DHT22;6876;50.788;4.940;2023-09-19T07:23:31;16.50;99.90
13610;DHT22;6876;50.788;4.940;2023-09-19T07:26:22;16.70;99.90
13610;DHT22;6876;50.788;4.940;2023-09-19T07:29:09;17.00;17.50
13610;DHT22;6876;50.788;4.940;2023-09-19T07:31:56;17.40;1.00
13610;DHT22;6876;50.788;4.940;2023-09-19T07:34:44;17.60;99.90
13610;DHT22;6876;50.788;4.940;2023-09-19T07:37:31;17.90;1.00
13610;DHT22;6876;50.788;4.940;2023-09-19T07:40:20;18.40;1.00
13610;DHT22;6876;50.788;4.940;2023-09-19T07:43:08;19.00;1.00
13610;DHT22;6876;50.788;4.940;2023-09-19T07:45:56;19.10;99.90
13610;DHT22;6876;50.788;4.940;2023-09-19T07:48:43;19.60;99.90
13610;DHT22;6876;50.788;4.940;2023-09-19T07:51:34;19.90;70.70
13610;DHT22;6876;50.788;4.940;2023-09-19T07:54:22;20.10;1.00
13610;DHT22;6876;50.788;4.940;2023-09-19T07:57:09;20.40;99.90
13610;DHT22;6876;50.788;4.940;2023-09-19T07:59:58;20.50;24.00
13610;DHT22;6876;50.788;4.940;2023-09-19T08:02:45;20.50;1.00
13610;DHT22;6876;50.788;4.940;2023-09-19T08:05:33;20.30;1.00
13610;DHT22;6876;50.788;4.940;2023-09-19T08:08:22;20.30;1.00
13610;DHT22;6876;50.788;4.940;2023-09-19T08:11:10;20.40;1.00
13610;DHT22;6876;50.788;4.940;2023-09-19T08:13:58;20.90;99.90
13610;DHT22;6876;50.788;4.940;2023-09-19T08:16:47;21.20;1.00
13610;DHT22;6876;50.788;4.940;2023-09-19T08:19:35;21.40;1.00
13610;DHT22;6876;50.788;4.940;2023-09-19T08:22:26;21.70;1.00
13610;DHT22;6876;50.788;4.940;2023-09-19T08:25:14;21.80;99.90
13610;DHT22;6876;50.788;4.940;2023-09-19T08:28:04;21.50;99.90
13610;DHT22;6876;50.788;4.940;2023-09-19T08:30:54;22.10;99.90
13610;DHT22;6876;50.788;4.940;2023-09-19T08:33:43;22.40;1.00
13610;DHT22;6876;50.788;4.940;2023-09-19T08:36:36;22.40;1.00
13610;DHT22;6876;50.788;4.940;2023-09-19T08:39:24;22.30;1.00
13610;DHT22;6876;50.788;4.940;2023-09-19T08:42:12;22.00;1.00
13610;DHT22;6876;50.788;4.940;2023-09-19T08:45:01;21.80;1.00
13610;DHT22;6876;50.788;4.940;2023-09-19T08:47:57;22.00;1.00
13610;DHT22;6876;50.788;4.940;2023-09-19T08:50:54;22.20;1.00
13610;DHT22;6876;50.788;4.940;2023-09-19T08:53:51;22.30;1.00
13610;DHT22;6876;50.788;4.940;2023-09-19T08:56:39;22.20;1.00
13610;DHT22;6876;50.788;4.940;2023-09-19T08:59:27;22.10;1.00
13610;DHT22;6876;50.788;4.940;2023-09-19T09:02:15;21.70;1.00
13610;DHT22;6876;50.788;4.940;2023-09-19T09:05:06;22.00;1.00
13610;DHT22;6876;50.788;4.940;2023-09-19T09:07:55;22.20;1.00
13610;DHT22;6876;50.788;4.940;2023-09-19T09:10:44;22.50;99.90
13610;DHT22;6876;50.788;4.940;2023-09-19T09:13:31;22.90;99.90
13610;DHT22;6876;50.788;4.940;2023-09-19T09:16:20;22.80;99.90
13610;DHT22;6876;50.788;4.940;2023-09-19T09:19:07;23.10;99.90
13610;DHT22;6876;50.788;4.940;2023-09-19T09:21:54;23.20;99.90
13610;DHT22;6876;50.788;4.940;2023-09-19T09:24:54;23.10;99.90
13610;DHT22;6876;50.788;4.940;2023-09-19T09:27:46;23.00;99.90
13610;DHT22;6876;50.788;4.940;2023-09-19T09:30:36;23.00;99.90
13610;DHT22;6876;50.788;4.940;2023-09-19T09:33:24;22.50;99.90
13610;DHT22;6876;50.788;4.940;2023-09-19T09:36:11;22.50;99.90
13610;DHT22;6876;50.788;4.940;2023-09-19T09:39:01;22.40;99.90
13610;DHT22;6876;50.788;4.940;2023-09-19T09:42:03;22.40;99.90
13610;DHT22;6876;50.788;4.940;2023-09-19T09:45:12;22.70;62.10
13610;DHT22;6876;50.788;4.940;2023-09-19T09:48:00;22.40;1.00
13610;DHT22;6876;50.788;4.940;2023-09-19T09:50:49;22.20;2.10
13610;DHT22;6876;50.788;4.940;2023-09-19T09:53:42;21.90;53.60
13610;DHT22;6876;50.788;4.940;2023-09-19T09:56:31;21.80;74.00
13610;DHT22;6876;50.788;4.940;2023-09-19T09:59:22;21.90;99.90
13610;DHT22;6876;50.788;4.940;2023-09-19T10:02:10;22.10;99.90
13610;DHT22;6876;50.788;4.940;2023-09-19T10:04:59;21.70;15.20
13610;DHT22;6876;50.788;4.940;2023-09-19T10:08:11;21.40;25.40
13610;DHT22;6876;50.788;4.940;2023-09-19T10:10:59;21.00;86.50
13610;DHT22;6876;50.788;4.940;2023-09-19T10:13:51;20.90;99.90
13610;DHT22;6876;50.788;4.940;2023-09-19T10:16:45;20.80;99.90
13610;DHT22;6876;50.788;4.940;2023-09-19T10:19:37;20.60;99.90
13610;DHT22;6876;50.788;4.940;2023-09-19T10:22:26;20.30;99.90
13610;DHT22;6876;50.788;4.940;2023-09-19T10:25:17;20.20;99.90
13610;DHT22;6876;50.788;4.940;2023-09-19T10:28:07;20.20;99.90
13610;DHT22;6876;50.788;4.940;2023-09-19T10:30:57;20.00;99.90
13610;DHT22;6876;50.788;4.940;2023-09-19T10:33:49;20.40;99.90
13610;DHT22;6876;50.788;4.940;2023-09-19T10:36:37;20.40;99.90
13610;DHT22;6876;50.788;4.940;2023-09-19T10:39:30;20.60;99.90
13610;DHT22;6876;50.788;4.940;2023-09-19T10:42:20;20.80;99.90
13610;DHT22;6876;50.788;4.940;2023-09-19T10:45:08;20.80;99.90
13610;DHT22;6876;50.788;4.940;2023-09-19T10:48:00;21.00;99.90
13610;DHT22;6876;50.788;4.940;2023-09-19T10:50:52;21.20;99.90
13610;DHT22;6876;50.788;4.940;2023-09-19T10:53:48;21.50;99.90
13610;DHT22;6876;50.788;4.940;2023-09-19T10:56:38;21.60;99.90
13610;DHT22;6876;50.788;4.940;2023-09-19T10:59:27;21.60;99.90
13610;DHT22;6876;50.788;4.940;2023-09-19T11:02:20;21.70;99.90
13610;DHT22;6876;50.788;4.940;2023-09-19T11:05:13;21.90;1.00
13610;DHT22;6876;50.788;4.940;2023-09-19T11:08:02;22.00;20.40
13610;DHT22;6876;50.788;4.940;2023-09-19T11:10:51;22.00;32.70
13610;DHT22;6876;50.788;4.940;2023-09-19T11:13:38;21.80;1.00
13610;DHT22;6876;50.788;4.940;2023-09-19T11:16:27;21.60;1.00
13610;DHT22;6876;50.788;4.940;2023-09-19T11:19:15;21.70;1.00
13610;DHT22;6876;50.788;4.940;2023-09-19T11:22:02;21.80;1.00
13610;DHT22;6876;50.788;4.940;2023-09-19T11:24:50;22.00;21.20
13610;DHT22;6876;50.788;4.940;2023-09-19T11:34:48;21.40;1.00
13610;DHT22;6876;50.788;4.940;2023-09-19T11:38:04;21.30;15.80
13610;DHT22;6876;50.788;4.940;2023-09-19T11:41:40;21.60;1.00
13610;DHT22;6876;50.788;4.940;2023-09-19T11:44:34;21.90;3.80
13610;DHT22;6876;50.788;4.940;2023-09-19T11:47:24;22.00;1.00
13610;DHT22;6876;50.788;4.940;2023-09-19T11:50:12;21.80;1.00
13610;DHT22;6876;50.788;4.940;2023-09-19T11:53:06;21.60;1.00
13610;DHT22;6876;50.788;4.940;2023-09-19T11:55:56;21.70;1.00
13610;DHT22;6876;50.788;4.940;2023-09-19T11:58:49;21.70;1.00
13610;DHT22;6876;50.788;4.940;2023-09-19T12:01:43;21.70;1.00
13610;DHT22;6876;50.788;4.940;2023-09-19T12:04:40;21.50;1.00
13610;DHT22;6876;50.788;4.940;2023-09-19T12:07:29;21.30;1.00
13610;DHT22;6876;50.788;4.940;2023-09-19T12:10:16;21.20;1.00
13610;DHT22;6876;50.788;4.940;2023-09-19T12:13:07;21.30;1.00
13610;DHT22;6876;50.788;4.940;2023-09-19T12:15:58;21.50;57.30
13610;DHT22;6876;50.788;4.940;2023-09-19T12:18:47;21.60;1.00
13610;DHT22;6876;50.788;4.940;2023-09-19T12:21:36;21.50;1.40
13610;DHT22;6876;50.788;4.940;2023-09-19T12:24:24;21.50;1.00
13610;DHT22;6876;50.788;4.940;2023-09-19T12:27:12;21.40;1.00
13610;DHT22;6876;50.788;4.940;2023-09-19T12:30:00;21.40;1.00
13610;DHT22;6876;50.788;4.940;2023-09-19T12:32:53;21.50;1.00
13610;DHT22;6876;50.788;4.940;2023-09-19T12:35:41;21.50;1.00
13610;DHT22;6876;50.788;4.940;2023-09-19T12:38:31;21.40;8.30
13610;DHT22;6876;50.788;4.940;2023-09-19T12:41:21;21.40;1.00
13610;DHT22;6876;50.788;4.940;2023-09-19T12:44:10;21.40;3.50
13610;DHT22;6876;50.788;4.940;2023-09-19T12:46:59;21.20;1.00
13610;DHT22;6876;50.788;4.940;2023-09-19T12:50:09;21.20;10.60
13610;DHT22;6876;50.788;4.940;2023-09-19T12:53:00;21.30;1.00
13610;DHT22;6876;50.788;4.940;2023-09-19T12:55:58;21.10;1.00
13610;DHT22;6876;50.788;4.940;2023-09-19T12:58:49;20.80;27.80
13610;DHT22;6876;50.788;4.940;2023-09-19T13:01:36;20.60;90.20
13610;DHT22;6876;50.788;4.940;2023-09-19T13:04:29;20.60;99.90
13610;DHT22;6876;50.788;4.940;2023-09-19T13:07:43;20.60;99.90
13610;DHT22;6876;50.788;4.940;2023-09-19T13:10:31;20.70;99.90
13610;DHT22;6876;50.788;4.940;2023-09-19T13:13:24;20.80;99.90
13610;DHT22;6876;50.788;4.940;2023-09-19T13:16:15;21.10;99.90
13610;DHT22;6876;50.788;4.940;2023-09-19T13:19:06;21.30;99.90
13610;DHT22;6876;50.788;4.940;2023-09-19T13:21:55;21.40;99.90
13610;DHT22;6876;50.788;4.940;2023-09-19T13:24:44;21.30;99.90
13610;DHT22;6876;50.788;4.940;2023-09-19T13:27:37;21.20;99.90
13610;DHT22;6876;50.788;4.940;2023-09-19T13:30:25;21.10;99.90
13610;DHT22;6876;50.788;4.940;2023-09-19T13:33:15;21.10;99.90
13610;DHT22;6876;50.788;4.940;2023-09-19T13:36:07;21.30;99.90
13610;DHT22;6876;50.788;4.940;2023-09-19T13:38:54;21.30;99.90
13610;DHT22;6876;50.788;4.940;2023-09-19T13:41:44;21.30;99.90
13610;DHT22;6876;50.788;4.940;2023-09-19T13:44:32;21.30;99.90
13610;DHT22;6876;50.788;4.940;2023-09-19T13:47:19;21.10;99.90
13610;DHT22;6876;50.788;4.940;2023-09-19T13:50:10;21.10;99.90
13610;DHT22;6876;50.788;4.940;2023-09-19T13:52:57;21.00;99.90
13610;DHT22;6876;50.788;4.940;2023-09-19T13:55:46;21.00;99.90
13610;DHT22;6876;50.788;4.940;2023-09-19T13:58:35;20.90;99.90
13610;DHT22;6876;50.788;4.940;2023-09-19T14:01:23;20.80;99.90
13610;DHT22;6876;50.788;4.940;2023-09-19T14:04:12;20.80;99.90
13610;DHT22;6876;50.788;4.940;2023-09-19T14:07:01;20.80;99.90
13610;DHT22;6876;50.788;4.940;2023-09-19T14:09:49;20.60;99.90
13610;DHT22;6876;50.788;4.940;2023-09-19T14:12:37;20.50;99.90
13610;DHT22;6876;50.788;4.940;2023-09-19T14:15:25;20.30;99.90
13610;DHT22;6876;50.788;4.940;2023-09-19T14:18:16;20.30;99.90
13610;DHT22;6876;50.788;4.940;2023-09-19T14:21:05;20.30;99.90
13610;DHT22;6876;50.788;4.940;2023-09-19T14:23:52;20.30;1.00
13610;DHT22;6876;50.788;4.940;2023-09-19T14:26:40;20.40;1.00
13610;DHT22;6876;50.788;4.940;2023-09-19T14:29:29;20.40;1.00
13610;DHT22;6876;50.788;4.940;2023-09-19T14:32:18;20.40;1.00
13610;DHT22;6876;50.788;4.940;2023-09-19T14:35:06;20.40;1.00
13610;DHT22;6876;50.788;4.940;2023-09-19T14:37:55;20.50;1.00
13610;DHT22;6876;50.788;4.940;2023-09-19T14:40:42;20.50;1.00
13610;DHT22;6876;50.788;4.940;2023-09-19T14:43:30;20.50;1.00
13610;DHT22;6876;50.788;4.940;2023-09-19T14:46:18;20.50;1.00
13610;DHT22;6876;50.788;4.940;2023-09-19T14:49:07;20.40;1.00
13610;DHT22;6876;50.788;4.940;2023-09-19T14:51:56;20.40;1.00
13610;DHT22;6876;50.788;4.940;2023-09-19T14:54:43;20.40;1.00
13610;DHT22;6876;50.788;4.940;2023-09-19T14:57:31;20.50;1.00
13610;DHT22;6876;50.788;4.940;2023-09-19T15:00:18;20.50;1.00
13610;DHT22;6876;50.788;4.940;2023-09-19T15:03:07;20.70;1.00
13610;DHT22;6876;50.788;4.940;2023-09-19T15:06:00;20.60;1.00
13610;DHT22;6876;50.788;4.940;2023-09-19T15:08:48;20.60;1.00
13610;DHT22;6876;50.788;4.940;2023-09-19T15:11:36;20.40;1.00
13610;DHT22;6876;50.788;4.940;2023-09-19T15:14:24;20.40;1.00
13610;DHT22;6876;50.788;4.940;2023-09-19T15:17:11;20.60;1.00
13610;DHT22;6876;50.788;4.940;2023-09-19T15:19:59;20.80;1.00
13610;DHT22;6876;50.788;4.940;2023-09-19T15:22:50;20.80;1.00
13610;DHT22;6876;50.788;4.940;2023-09-19T15:25:37;20.70;1.00
13610;DHT22;6876;50.788;4.940;2023-09-19T15:28:26;20.70;1.00
13610;DHT22;6876;50.788;4.940;2023-09-19T15:31:14;20.60;1.00
13610;DHT22;6876;50.788;4.940;2023-09-19T15:34:01;20.50;1.00
13610;DHT22;6876;50.788;4.940;2023-09-19T15:36:49;20.50;1.00
13610;DHT22;6876;50.788;4.940;2023-09-19T15:39:39;20.40;1.00
13610;DHT22;6876;50.788;4.940;2023-09-19T15:42:27;20.40;1.00
13610;DHT22;6876;50.788;4.940;2023-09-19T15:45:14;20.50;1.00
13610;DHT22;6876;50.788;4.940;2023-09-19T15:48:02;20.30;1.00
13610;DHT22;6876;50.788;4.940;2023-09-19T15:50:50;20.30;1.00
13610;DHT22;6876;50.788;4.940;2023-09-19T15:53:43;20.20;1.00
13610;DHT22;6876;50.788;4.940;2023-09-19T15:56:33;20.10;99.90
13610;DHT22;6876;50.788;4.940;2023-09-19T15:59:21;20.10;99.90
13610;DHT22;6876;50.788;4.940;2023-09-19T16:02:09;20.10;99.90
13610;DHT22;6876;50.788;4.940;2023-09-19T16:04:56;20.00;99.90
13610;DHT22;6876;50.788;4.940;2023-09-19T16:07:43;19.90;99.90
13610;DHT22;6876;50.788;4.940;2023-09-19T16:10:34;19.80;99.90
13610;DHT22;6876;50.788;4.940;2023-09-19T16:13:24;19.70;99.90
13610;DHT22;6876;50.788;4.940;2023-09-19T16:16:12;19.70;1.00
13610;DHT22;6876;50.788;4.940;2023-09-19T16:19:02;19.70;1.00
13610;DHT22;6876;50.788;4.940;2023-09-19T16:21:51;19.60;1.00
13610;DHT22;6876;50.788;4.940;2023-09-19T16:24:38;19.70;1.00
13610;DHT22;6876;50.788;4.940;2023-09-19T16:27:26;19.60;1.00
13610;DHT22;6876;50.788;4.940;2023-09-19T16:30:14;19.60;1.00
13610;DHT22;6876;50.788;4.940;2023-09-19T16:33:04;19.60;1.00
13610;DHT22;6876;50.788;4.940;2023-09-19T16:35:52;19.60;1.00
13610;DHT22;6876;50.788;4.940;2023-09-19T16:38:41;19.60;1.00
13610;DHT22;6876;50.788;4.940;2023-09-19T16:41:28;19.60;1.00
13610;DHT22;6876;50.788;4.940;2023-09-19T16:44:15;19.60;1.00
13610;DHT22;6876;50.788;4.940;2023-09-19T16:47:04;19.50;1.00
13610;DHT22;6876;50.788;4.940;2023-09-19T16:49:51;19.50;1.00
13610;DHT22;6876;50.788;4.940;2023-09-19T16:52:39;19.50;1.00
13610;DHT22;6876;50.788;4.940;2023-09-19T16:55:27;19.50;1.00
13610;DHT22;6876;50.788;4.940;2023-09-19T16:58:15;19.50;1.00
13610;DHT22;6876;50.788;4.940;2023-09-19T17:01:03;19.40;1.00
13610;DHT22;6876;50.788;4.940;2023-09-19T17:03:52;19.40;1.00
13610;DHT22;6876;50.788;4.940;2023-09-19T17:06:39;19.40;1.00
13610;DHT22;6876;50.788;4.940;2023-09-19T17:09:26;19.40;1.00
13610;DHT22;6876;50.788;4.940;2023-09-19T17:12:14;19.40;1.00
13610;DHT22;6876;50.788;4.940;2023-09-19T17:15:02;19.40;99.90
13610;DHT22;6876;50.788;4.940;2023-09-19T17:17:50;19.40;99.90
13610;DHT22;6876;50.788;4.940;2023-09-19T17:20:42;19.30;99.90
13610;DHT22;6876;50.788;4.940;2023-09-19T17:23:30;19.30;1.00
13610;DHT22;6876;50.788;4.940;2023-09-19T17:26:19;19.30;1.00
13610;DHT22;6876;50.788;4.940;2023-09-19T17:29:07;19.30;1.00
13610;DHT22;6876;50.788;4.940;2023-09-19T17:31:56;19.30;1.00
13610;DHT22;6876;50.788;4.940;2023-09-19T17:34:46;19.30;1.00
13610;DHT22;6876;50.788;4.940;2023-09-19T17:37:35;19.30;1.00
13610;DHT22;6876;50.788;4.940;2023-09-19T17:40:24;19.20;99.90
13610;DHT22;6876;50.788;4.940;2023-09-19T17:43:12;19.10;1.00
13610;DHT22;6876;50.788;4.940;2023-09-19T17:46:06;19.10;1.00
13610;DHT22;6876;50.788;4.940;2023-09-19T17:48:56;19.00;1.00
13610;DHT22;6876;50.788;4.940;2023-09-19T17:51:44;19.00;1.00
13610;DHT22;6876;50.788;4.940;2023-09-19T17:54:33;18.90;1.00
13610;DHT22;6876;50.788;4.940;2023-09-19T17:57:20;18.90;1.00
13610;DHT22;6876;50.788;4.940;2023-09-19T18:00:10;18.90;1.00
13610;DHT22;6876;50.788;4.940;2023-09-19T18:03:01;18.90;1.00
13610;DHT22;6876;50.788;4.940;2023-09-19T18:05:51;18.90;1.00
13610;DHT22;6876;50.788;4.940;2023-09-19T18:08:40;18.90;99.90
13610;DHT22;6876;50.788;4.940;2023-09-19T18:11:30;18.90;99.90
13610;DHT22;6876;50.788;4.940;2023-09-19T18:14:18;18.80;99.90
13610;DHT22;6876;50.788;4.940;2023-09-19T18:17:05;18.90;99.90
13610;DHT22;6876;50.788;4.940;2023-09-19T18:19:55;18.90;99.90
13610;DHT22;6876;50.788;4.940;2023-09-19T18:22:42;18.80;99.90
13610;DHT22;6876;50.788;4.940;2023-09-19T18:25:30;18.80;99.90